< Typhoon 198814 1988 Season Typhoon 198816 >
Typhoon 198815 (FABIAN)
General InformationTrack Information on Google MapsDetailed Wind InformationList of All Images || Disaster Info.ResourceGoogle EarthGE AnimationAtom FeedGeoJSON
Detalied Best Track (Time Zone = UTC)
Year Month Day Hour Lat. Long. Pressure (hPa) Wind (kt) Class Image Chart
1988 8 26 06 30.0 141.0 1002 0 2 Image Chart
1988 8 26 12 30.5 141.5 1002 0 2 Image Chart
1988 8 26 18 31.0 142.0 1002 0 2 Image Chart
1988 8 27 00 32.0 142.0 1002 0 2 Image Chart
1988 8 27 06 31.5 141.5 1000 0 2 Image Chart
1988 8 27 12 31.0 141.5 1000 0 2 Image Chart
1988 8 27 18 30.5 142.0 1000 0 2 Image Chart
1988 8 28 00 30.5 142.2 1000 0 2 Image Chart
1988 8 28 06 30.5 142.4 998 0 2 Image Chart
1988 8 28 12 30.5 142.6 998 0 2 Image Chart
1988 8 28 18 30.5 142.8 998 0 2 Image Chart
1988 8 29 00 30.5 143.0 998 0 2 Image Chart
1988 8 29 06 30.6 143.3 996 35 3 Image Chart
1988 8 29 12 30.8 143.8 994 35 3 Image Chart
1988 8 29 18 31.0 144.3 992 45 3 Image Chart
1988 8 30 00 31.1 144.7 990 45 3 Image Chart
1988 8 30 06 31.1 145.4 985 50 4 Image Chart
1988 8 30 12 31.1 146.3 980 50 4 Image Chart
1988 8 30 18 31.1 147.4 975 50 4 Image Chart
1988 8 31 00 31.2 148.5 975 60 4 Image Chart
1988 8 31 06 31.3 149.7 980 55 4 Image Chart
1988 8 31 12 31.4 150.8 980 55 4 Image Chart
1988 8 31 18 31.2 151.9 985 55 4 Image Chart
1988 9 1 00 30.8 153.0 985 55 4 Image Chart
1988 9 1 06 31.2 153.6 985 55 4 Image Chart
1988 9 1 12 31.8 153.8 985 50 4 Image Chart
1988 9 1 18 32.5 153.8 980 50 4 Image Chart
1988 9 2 00 33.1 153.6 970 60 4 Image Chart
1988 9 2 06 34.2 153.7 970 60 4 Image Chart
1988 9 2 12 35.5 153.9 975 60 4 Image Chart
1988 9 2 18 37.2 154.8 980 60 4 Image Chart
1988 9 3 00 38.8 156.7 985 50 4 Image Chart
1988 9 3 06 41.0 158.5 990 50 4 Image Chart
1988 9 3 12 43.5 162.0 994 45 3 Image Chart
1988 9 3 18 46.0 169.0 996 0 6 Image Chart
1988 9 4 00 47.0 175.0 996 0 6 Image Chart
Japan Meteorological Agency Best Track Data | Correction Date : 1992-10-21
< Typhoon 198814 1988 Season Typhoon 198816 >

Help